Strona główna
METAR-TAF:

METAR-TAF

Lotnisko :

Harrisburg, Pensylwania, Stany Zjednoczone

Szerokość geograficzna: 40-13-02N, Długość geograficzna: 076-51-05W, wysokość: 106 m

Aktualna obserwacja pogody

Raport powstał 39 minut temu, godzina 10:56 UTC
Wiatr 4 kt od wschodnio-południowy wschód
Temperatura 21°C
Wilgotność 94%
Ciśnienie 1014 hPa
Widzialność: 3.2 km
Mało chmury na wysokości 200 ft
Rozproszone chmury na wysokości 6500 ft
Przerywane chmury na wysokości 9500 ft
zamglenie

METAR: KCXY 181056Z 12004KT 2SM BR FEW002 SCT065 BKN095 21/20 A2993 RMK AO2 SLP135 T02110200

czas: 07:35 (11:35 UTC)


TAF: brakujący

Obserwacja i prognoza pogody dla ponad 4000 lotnisk (raport METAR i TAF).

Dostępne stacje oznaczono żółtymi i czerwonymi punktami na mapie.

Najedź kursorem aby zobaczyć nazwę stacji.

Kliknij aby zobaczyć obserwacje i prognozy pogody.

Aby zmienić mapę: kliknij na zielony przycisk z czarnym krzyżykiem, aby powiększyć; na zielony przycisk z myślnikiem, aby pomniejszyć; na zielone strzałki, aby przejść do map sąsiednich.


METAR-TAF: